Time;durP1;ratioP1;P1;durP2;ratioP2;P2;SDS_P1;SDS_P2;PMS_P1;PMS_P2;Temp;Humidity;BMP_temperature;BMP_pressure;BME280_temperature;BME280_humidity;BME280_pressure;Samples;Min_cycle;Max_cycle;Signal;HPM_P1;HPM_P2
2022/12/22 03:29:57;;;;;;;4.47;4.13;;;6.90;49.70;;;;;;10461420;28;20227;-72
2022/12/22 03:35:01;;;;;;;4.47;4.17;;;7.00;49.60;;;;;;10458951;28;20635;-71
2022/12/22 03:40:05;;;;;;;4.60;4.23;;;7.10;50.00;;;;;;10459660;28;20770;-71
2022/12/22 03:50:32;;;;;;;3.30;3.00;;;7.20;50.40;;;;;;10457334;28;20656;-72
2022/12/22 03:55:35;;;;;;;2.60;2.40;;;7.30;50.70;;;;;;10457277;28;20700;-72
2022/12/22 04:00:39;;;;;;;2.50;2.30;;;7.40;50.90;;;;;;10462720;28;20233;-72
2022/12/22 04:05:45;;;;;;;2.40;2.20;;;7.60;51.30;;;;;;10458858;28;20250;-72
2022/12/22 04:16:08;;;;;;;2.13;1.97;;;8.00;51.60;;;;;;10458016;28;20228;-71
2022/12/22 04:21:13;;;;;;;2.40;2.20;;;8.10;51.70;;;;;;10455415;28;20275;-71
2022/12/22 04:26:16;;;;;;;2.00;1.67;;;8.30;52.40;;;;;;10460431;28;20224;-71
2022/12/22 04:31:21;;;;;;;2.23;1.90;;;8.40;51.60;;;;;;10460837;28;20224;-71
2022/12/22 04:36:25;;;;;;;2.10;2.00;;;8.50;51.80;;;;;;10458377;28;20247;-71
2022/12/22 04:41:28;;;;;;;1.70;1.60;;;8.60;51.80;;;;;;10458979;28;20581;-71
2022/12/22 04:46:32;;;;;;;2.00;1.50;;;8.70;51.60;;;;;;10453634;28;20263;-71
2022/12/22 04:51:36;;;;;;;1.60;1.50;;;8.80;51.70;;;;;;10461924;28;20764;-72
2022/12/22 04:56:40;;;;;;;2.07;1.90;;;8.90;51.80;;;;;;10459628;28;20224;-71
2022/12/22 05:01:43;;;;;;;2.07;1.87;;;8.90;51.50;;;;;;10457701;28;20236;-72
2022/12/22 05:06:48;;;;;;;2.23;2.03;;;9.00;51.50;;;;;;10462693;28;20236;-69
2022/12/22 05:11:51;;;;;;;1.80;1.70;;;9.00;51.80;;;;;;10461581;28;20224;-69
2022/12/22 05:16:54;;;;;;;3.00;1.87;;;9.10;51.50;;;;;;10459818;28;20229;-69
2022/12/22 05:21:58;;;;;;;1.80;1.70;;;9.10;51.90;;;;;;10462984;28;20228;-69
2022/12/22 05:27:02;;;;;;;2.07;1.97;;;9.10;51.90;;;;;;10467410;28;20232;-71
2022/12/22 05:32:05;;;;;;;2.20;2.00;;;9.20;52.00;;;;;;10468350;28;20224;-72
2022/12/22 05:37:09;;;;;;;1.90;1.80;;;9.20;51.90;;;;;;10467808;28;20636;-71
2022/12/22 05:42:12;;;;;;;3.83;3.50;;;9.30;52.10;;;;;;10476490;28;20244;-69
2022/12/22 05:47:16;;;;;;;3.13;2.83;;;9.30;51.30;;;;;;10479135;28;20274;-69
2022/12/22 05:52:20;;;;;;;4.17;3.77;;;9.30;51.20;;;;;;10467313;28;20231;-70
2022/12/22 05:57:23;;;;;;;3.60;2.97;;;9.30;51.40;;;;;;10474270;28;20228;-70
2022/12/22 06:02:27;;;;;;;6.23;5.60;;;9.30;50.80;;;;;;10473821;28;20587;-70
2022/12/22 06:07:32;;;;;;;7.07;5.43;;;9.30;50.50;;;;;;10473786;28;20245;-70
2022/12/22 06:12:35;;;;;;;5.70;3.70;;;9.30;50.30;;;;;;10470582;28;20964;-73
2022/12/22 06:17:38;;;;;;;3.43;3.10;;;9.30;50.00;;;;;;10468956;28;20224;-74
2022/12/22 06:22:48;;;;;;;7.67;6.93;;;9.20;49.80;;;;;;10479097;28;20307;-74
2022/12/22 06:27:51;;;;;;;7.13;6.07;;;9.10;50.30;;;;;;10467852;28;20233;-73
2022/12/22 06:32:54;;;;;;;3.03;2.73;;;9.10;51.10;;;;;;10475390;28;20605;-73
2022/12/22 06:37:59;;;;;;;2.90;2.70;;;9.10;51.90;;;;;;10480422;28;20240;-73
2022/12/22 06:43:08;;;;;;;2.53;2.33;;;9.30;53.90;;;;;;10491629;28;20323;-73
2022/12/22 06:48:13;;;;;;;3.00;2.63;;;9.50;53.70;;;;;;10485454;28;20704;-73
2022/12/22 06:53:18;;;;;;;3.40;3.10;;;9.80;53.60;;;;;;10480704;28;20216;-73
2022/12/22 06:58:21;;;;;;;3.30;2.10;;;10.00;52.20;;;;;;10477203;28;20243;-73
2022/12/22 07:03:24;;;;;;;2.37;2.17;;;10.20;51.90;;;;;;10481546;28;20240;-73
2022/12/22 07:08:29;;;;;;;2.63;1.90;;;10.40;52.10;;;;;;10472912;28;20870;-73
2022/12/22 07:13:34;;;;;;;2.83;1.60;;;10.50;51.80;;;;;;10485598;28;20237;-73
2022/12/22 07:18:39;;;;;;;3.63;1.70;;;10.70;51.30;;;;;;10477793;28;20221;-70
2022/12/22 07:23:44;;;;;;;2.97;1.90;;;10.80;50.80;;;;;;10478670;28;20225;-70
2022/12/22 07:28:47;;;;;;;2.63;1.37;;;10.90;50.60;;;;;;10479284;28;20232;-70
2022/12/22 07:33:50;;;;;;;3.27;1.13;;;11.00;50.50;;;;;;10479477;28;20224;-70
2022/12/22 07:38:54;;;;;;;3.27;1.83;;;11.10;50.30;;;;;;10479088;28;20221;-72
2022/12/22 07:43:59;;;;;;;2.70;1.43;;;11.20;50.00;;;;;;10475936;28;20228;-70
2022/12/22 07:54:26;;;;;;;3.07;2.03;;;11.40;49.80;;;;;;10481154;28;20302;-72
2022/12/22 07:59:29;;;;;;;2.60;1.60;;;11.40;49.30;;;;;;10478799;28;20227;-72
2022/12/22 08:04:32;;;;;;;1.93;1.40;;;11.50;49.30;;;;;;10481319;28;20236;-69
2022/12/22 08:09:37;;;;;;;1.67;1.27;;;11.60;49.10;;;;;;10475248;28;20701;-70
2022/12/22 08:14:44;;;;;;;1.43;1.30;;;11.60;48.80;;;;;;10485751;28;20220;-70
2022/12/22 08:19:48;;;;;;;1.80;1.10;;;11.70;49.10;;;;;;10481666;28;20228;-70
2022/12/22 08:24:54;;;;;;;1.23;1.00;;;11.80;49.10;;;;;;10481268;28;20232;-69
2022/12/22 08:30:00;;;;;;;1.90;1.20;;;11.90;48.90;;;;;;10474618;28;20295;-70
2022/12/22 08:35:05;;;;;;;2.03;1.10;;;12.10;48.80;;;;;;10475381;28;20224;-73
2022/12/22 08:40:14;;;;;;;1.23;1.00;;;12.20;48.60;;;;;;10479210;28;20698;-73
2022/12/22 08:45:17;;;;;;;1.43;1.00;;;12.40;48.00;;;;;;10471742;28;20236;-70
2022/12/22 08:50:20;;;;;;;3.37;1.20;;;12.50;48.30;;;;;;10460876;28;20220;-71
2022/12/22 08:55:25;;;;;;;2.20;0.90;;;12.60;48.20;;;;;;10459366;28;20695;-73
2022/12/22 09:00:28;;;;;;;2.33;1.23;;;12.70;47.80;;;;;;10471439;28;20228;-73
2022/12/22 09:05:33;;;;;;;2.93;1.40;;;12.90;48.10;;;;;;10476112;28;20324;-73
2022/12/22 09:10:37;;;;;;;3.40;1.30;;;13.00;47.40;;;;;;10479365;28;20227;-73
2022/12/22 09:15:40;;;;;;;4.60;1.30;;;13.20;47.20;;;;;;10465340;28;20912;-72
2022/12/22 09:20:43;;;;;;;2.97;1.40;;;13.30;46.90;;;;;;10472481;28;20278;-72
2022/12/22 09:25:48;;;;;;;3.00;1.43;;;13.30;46.50;;;;;;10468163;28;20244;-71
2022/12/22 09:30:52;;;;;;;2.00;1.20;;;13.30;46.00;;;;;;10467340;28;20228;-71
2022/12/22 09:35:55;;;;;;;5.17;1.70;;;13.30;46.10;;;;;;10463533;28;20233;-70
2022/12/22 09:40:59;;;;;;;3.10;1.47;;;13.30;46.40;;;;;;10462178;28;20229;-68
2022/12/22 09:46:03;;;;;;;5.13;2.07;;;13.30;46.40;;;;;;10469592;28;20781;-71
2022/12/22 09:51:12;;;;;;;3.30;1.60;;;13.50;47.00;;;;;;10460432;28;20225;-68
2022/12/22 09:56:18;;;;;;;2.53;1.60;;;13.60;45.60;;;;;;10464938;28;20225;-70
2022/12/22 10:01:36;;;;;;;2.33;1.70;;;13.70;46.00;;;;;;10460559;28;20232;-70
2022/12/22 10:06:45;;;;;;;4.90;1.73;;;13.70;45.30;;;;;;10477448;28;20225;-70
2022/12/22 10:11:53;;;;;;;3.03;1.40;;;13.70;45.50;;;;;;10471647;28;20220;-70
2022/12/22 10:17:15;;;;;;;3.73;1.60;;;13.70;44.90;;;;;;10475159;28;20225;-70
2022/12/22 10:22:26;;;;;;;3.87;1.67;;;13.70;45.10;;;;;;10474531;28;20216;-72
2022/12/22 10:27:33;;;;;;;4.03;1.80;;;13.70;45.10;;;;;;10476293;28;20232;-68
2022/12/22 10:32:43;;;;;;;4.67;1.60;;;13.80;45.40;;;;;;10473064;28;20789;-66
2022/12/22 10:37:47;;;;;;;4.17;2.10;;;13.80;45.60;;;;;;10473849;28;20731;-67
2022/12/22 10:42:56;;;;;;;3.83;2.67;;;13.80;45.50;;;;;;10475586;28;20247;-67
2022/12/22 10:47:59;;;;;;;4.17;2.60;;;13.90;45.10;;;;;;10478899;28;20236;-66
2022/12/22 10:53:04;;;;;;;4.00;2.27;;;13.90;45.70;;;;;;10472203;28;20222;-68
2022/12/22 10:58:16;;;;;;;2.53;1.67;;;13.90;45.70;;;;;;10468445;28;20228;-68
2022/12/22 11:03:29;;;;;;;3.57;2.20;;;13.90;44.80;;;;;;10453762;28;20233;-68
2022/12/22 11:08:33;;;;;;;3.87;1.70;;;13.90;44.90;;;;;;10460946;28;20233;-68
2022/12/22 11:13:56;;;;;;;4.00;2.00;;;14.00;45.50;;;;;;10459684;28;20227;-67
2022/12/22 11:19:10;;;;;;;3.73;1.47;;;14.00;43.40;;;;;;10459865;28;20216;-68
2022/12/22 11:24:28;;;;;;;2.10;1.50;;;14.00;44.40;;;;;;10472199;28;20243;-68
2022/12/22 11:30:02;;;;;;;3.63;1.50;;;13.90;44.60;;;;;;10460590;28;20233;-69
2022/12/22 11:35:11;;;;;;;2.77;1.20;;;14.00;44.60;;;;;;10460967;28;20217;-68
2022/12/22 11:40:24;;;;;;;2.50;1.00;;;13.90;44.80;;;;;;10461819;28;20221;-68
2022/12/22 11:45:51;;;;;;;3.90;1.07;;;13.80;45.20;;;;;;10467341;28;20659;-69
2022/12/22 11:50:56;;;;;;;2.67;1.13;;;13.70;45.20;;;;;;10464987;28;20634;-68
2022/12/22 11:56:22;;;;;;;3.07;1.17;;;13.50;45.40;;;;;;10464420;28;20230;-68
2022/12/22 12:01:43;;;;;;;1.47;1.10;;;13.30;45.30;;;;;;10461308;28;20231;-69
2022/12/22 12:07:05;;;;;;;2.73;1.40;;;13.10;45.80;;;;;;10452101;28;20227;-68
2022/12/22 12:12:16;;;;;;;2.53;1.27;;;12.90;46.00;;;;;;10466554;28;20216;-68
2022/12/22 12:17:30;;;;;;;2.63;1.40;;;12.80;46.20;;;;;;10476273;28;20232;-68
2022/12/22 12:22:44;;;;;;;2.37;1.30;;;12.80;46.80;;;;;;10456863;28;20225;-68
2022/12/22 12:28:01;;;;;;;2.60;1.40;;;12.70;47.00;;;;;;10457540;28;20240;-68
2022/12/22 12:33:16;;;;;;;3.23;1.83;;;12.70;47.30;;;;;;10455307;28;20782;-68
2022/12/22 12:38:31;;;;;;;3.47;1.60;;;12.70;47.50;;;;;;10474856;28;20227;-68
2022/12/22 12:43:56;;;;;;;4.77;1.70;;;12.70;47.80;;;;;;10471838;28;20248;-68
2022/12/22 12:49:01;;;;;;;3.93;1.70;;;12.70;47.40;;;;;;10479111;28;20223;-68
2022/12/22 12:54:35;;;;;;;4.10;2.20;;;12.70;47.70;;;;;;10475536;28;20224;-68
2022/12/22 12:59:49;;;;;;;4.63;2.90;;;12.60;48.00;;;;;;10474245;28;20240;-69
2022/12/22 13:05:35;;;;;;;10.20;5.53;;;12.60;48.20;;;;;;10485761;28;20235;-71
2022/12/22 13:10:43;;;;;;;5.23;3.03;;;12.50;48.30;;;;;;10481682;28;20762;-71
2022/12/22 13:15:47;;;;;;;5.33;3.17;;;12.50;48.40;;;;;;10486039;28;20239;-71
2022/12/22 13:20:55;;;;;;;4.67;2.57;;;12.50;48.10;;;;;;10475019;28;20225;-71
2022/12/22 13:26:23;;;;;;;3.80;2.20;;;12.50;48.60;;;;;;10477240;28;20311;-71
2022/12/22 13:31:33;;;;;;;5.83;3.07;;;12.50;48.70;;;;;;10476840;28;20600;-71
2022/12/22 13:36:37;;;;;;;5.33;2.40;;;12.60;48.70;;;;;;10483521;28;20677;-71
2022/12/22 13:41:44;;;;;;;4.80;1.90;;;12.60;48.40;;;;;;10478758;28;20227;-69
2022/12/22 13:46:47;;;;;;;5.40;1.90;;;12.60;48.70;;;;;;10477264;28;20227;-68
2022/12/22 13:51:51;;;;;;;4.43;2.17;;;12.60;48.30;;;;;;10477040;28;20245;-68
2022/12/22 13:56:58;;;;;;;8.37;2.20;;;12.70;48.50;;;;;;10469981;28;20739;-68
2022/12/22 14:02:04;;;;;;;8.43;3.83;;;12.70;48.20;;;;;;10476966;28;20220;-68
2022/12/22 14:07:11;;;;;;;7.90;3.60;;;12.80;48.30;;;;;;10476652;28;20720;-68
2022/12/22 14:12:19;;;;;;;6.83;2.77;;;12.90;48.10;;;;;;10480041;28;20231;-67
2022/12/22 14:17:25;;;;;;;6.07;2.50;;;13.00;47.60;;;;;;10473025;28;20647;-67
2022/12/22 14:22:35;;;;;;;5.63;3.20;;;13.10;47.60;;;;;;10469130;28;20327;-68
2022/12/22 14:27:43;;;;;;;7.77;2.70;;;13.10;47.40;;;;;;10463420;28;20228;-68
2022/12/22 14:32:49;;;;;;;8.00;2.50;;;13.20;47.40;;;;;;10464670;28;20899;-68
2022/12/22 14:38:17;;;;;;;5.10;2.20;;;13.20;47.20;;;;;;10458777;28;20599;-67
2022/12/22 14:43:31;;;;;;;4.67;1.80;;;13.30;46.70;;;;;;10463666;28;20225;-68
2022/12/22 14:48:37;;;;;;;4.53;2.00;;;13.40;46.70;;;;;;10460048;28;20598;-70
2022/12/22 14:53:45;;;;;;;5.33;1.90;;;13.40;46.70;;;;;;10457504;28;20232;-69
2022/12/22 14:58:50;;;;;;;13.23;2.97;;;13.50;46.20;;;;;;10467608;28;20232;-69
2022/12/22 15:04:00;;;;;;;5.00;1.87;;;13.50;46.30;;;;;;10462054;28;20231;-69
2022/12/22 15:09:24;;;;;;;9.67;6.50;;;13.50;45.90;;;;;;10457623;28;20221;-69
2022/12/22 15:14:49;;;;;;;11.83;8.67;;;13.50;45.90;;;;;;10465494;28;20258;-68
2022/12/22 15:19:56;;;;;;;10.70;6.83;;;13.60;46.20;;;;;;10461813;28;20308;-69
2022/12/22 15:24:59;;;;;;;22.83;17.10;;;13.60;46.20;;;;;;10457092;28;20688;-70
2022/12/22 15:30:04;;;;;;;8.43;3.80;;;13.60;46.10;;;;;;10459201;28;20228;-70
2022/12/22 15:35:20;;;;;;;7.13;4.03;;;13.60;45.60;;;;;;10461131;28;20849;-69
2022/12/22 15:40:25;;;;;;;7.07;3.33;;;13.70;44.10;;;;;;10459375;28;20720;-69
2022/12/22 15:45:30;;;;;;;7.03;4.13;;;13.70;45.70;;;;;;10460515;28;20232;-70
2022/12/22 15:50:36;;;;;;;9.00;5.40;;;13.70;45.40;;;;;;10461939;28;20226;-69
2022/12/22 15:55:42;;;;;;;7.80;4.27;;;13.70;45.40;;;;;;10454877;28;20274;-70
2022/12/22 16:00:47;;;;;;;6.17;3.27;;;13.70;45.40;;;;;;10458779;28;20251;-69
2022/12/22 16:05:51;;;;;;;8.50;3.73;;;13.70;45.30;;;;;;10455084;28;20235;-69
2022/12/22 16:10:54;;;;;;;7.10;2.53;;;13.70;46.30;;;;;;10458184;28;20240;-70
2022/12/22 16:15:59;;;;;;;5.33;2.57;;;13.70;45.40;;;;;;10452774;28;20324;-69
2022/12/22 16:21:06;;;;;;;6.83;3.17;;;13.70;45.40;;;;;;10461488;28;20659;-70
2022/12/22 16:26:15;;;;;;;5.60;2.20;;;13.60;45.40;;;;;;10458348;28;20320;-70
2022/12/22 16:31:21;;;;;;;7.83;2.87;;;13.60;45.40;;;;;;10454331;28;20237;-69
2022/12/22 16:36:25;;;;;;;8.10;4.30;;;13.50;45.40;;;;;;10471329;28;20231;-71
2022/12/22 16:41:28;;;;;;;9.93;3.27;;;13.50;45.70;;;;;;10485457;28;20231;-72
2022/12/22 16:46:36;;;;;;;9.60;3.87;;;13.50;45.70;;;;;;10484559;28;20591;-72
2022/12/22 16:51:45;;;;;;;11.80;5.33;;;13.40;45.70;;;;;;10464867;28;20304;-67
2022/12/22 16:56:50;;;;;;;6.47;3.50;;;13.40;45.60;;;;;;10464211;28;20228;-66
2022/12/22 17:01:56;;;;;;;15.10;8.07;;;13.40;45.80;;;;;;10455314;28;20229;-67
2022/12/22 17:07:01;;;;;;;16.97;11.50;;;13.30;45.80;;;;;;10453664;28;21022;-67
2022/12/22 17:12:06;;;;;;;12.37;6.97;;;13.30;45.90;;;;;;10458565;28;20699;-69
2022/12/22 17:17:15;;;;;;;13.90;7.20;;;13.20;45.80;;;;;;10454433;28;20639;-68
2022/12/22 17:22:22;;;;;;;10.37;4.53;;;13.20;45.50;;;;;;10463883;28;20224;-68
2022/12/22 17:27:27;;;;;;;8.97;3.87;;;13.20;45.30;;;;;;10464926;28;20229;-68
2022/12/22 17:32:32;;;;;;;7.87;2.80;;;13.20;45.60;;;;;;10469369;28;20234;-67
2022/12/22 17:37:35;;;;;;;7.57;2.50;;;13.20;45.50;;;;;;10472446;28;20220;-67
2022/12/22 17:42:38;;;;;;;7.60;3.90;;;13.20;45.70;;;;;;10469281;28;20746;-68
2022/12/22 17:47:43;;;;;;;8.80;3.13;;;13.20;45.60;;;;;;10461359;28;20228;-68
2022/12/22 17:52:47;;;;;;;10.03;4.60;;;13.20;45.30;;;;;;10463300;28;20606;-68
2022/12/22 17:57:50;;;;;;;7.80;3.53;;;13.20;45.30;;;;;;10460035;28;20228;-68
2022/12/22 18:02:55;;;;;;;7.90;3.30;;;13.20;45.30;;;;;;10470633;28;20703;-67
2022/12/22 18:08:00;;;;;;;7.17;3.00;;;13.20;45.00;;;;;;10469533;28;20301;-68
2022/12/22 18:13:10;;;;;;;7.40;2.63;;;13.20;45.00;;;;;;10468436;28;20732;-71
2022/12/22 18:18:16;;;;;;;6.67;2.70;;;13.30;45.10;;;;;;10478904;28;20274;-71
2022/12/22 18:23:23;;;;;;;9.13;3.27;;;13.30;44.80;;;;;;10471191;28;20229;-72
2022/12/22 18:28:26;;;;;;;9.07;2.57;;;13.30;44.80;;;;;;10471878;28;20233;-68
2022/12/22 18:33:31;;;;;;;8.30;2.53;;;13.30;45.10;;;;;;10457608;28;20603;-68
2022/12/22 18:38:35;;;;;;;4.90;2.20;;;13.30;44.80;;;;;;10459978;28;20233;-68
2022/12/22 18:43:38;;;;;;;6.77;2.20;;;13.30;45.10;;;;;;10462879;28;20220;-69
2022/12/22 18:48:43;;;;;;;5.47;2.23;;;13.30;45.10;;;;;;10460965;28;20235;-68
2022/12/22 18:53:46;;;;;;;5.63;2.00;;;13.30;44.70;;;;;;10456138;28;20220;-69
2022/12/22 18:58:49;;;;;;;6.23;2.17;;;13.30;45.00;;;;;;10455741;28;20236;-68
2022/12/22 19:03:57;;;;;;;4.93;2.37;;;13.30;44.90;;;;;;10459111;28;20617;-68
2022/12/22 19:09:00;;;;;;;6.80;2.37;;;13.30;44.40;;;;;;10460062;28;20224;-69
2022/12/22 19:14:03;;;;;;;5.13;2.07;;;13.30;44.90;;;;;;10452426;28;20229;-68
2022/12/22 19:19:14;;;;;;;7.37;2.50;;;13.20;44.90;;;;;;10476346;28;20228;-71
2022/12/22 19:24:17;;;;;;;5.60;2.30;;;13.20;44.50;;;;;;10463764;28;20227;-68
2022/12/22 19:29:21;;;;;;;6.53;2.40;;;13.20;44.90;;;;;;10470054;28;20225;-68
2022/12/22 19:34:25;;;;;;;5.63;2.40;;;13.20;44.80;;;;;;10472724;28;20716;-68
2022/12/22 19:39:28;;;;;;;6.10;2.90;;;13.10;44.60;;;;;;10466295;28;20225;-68
2022/12/22 19:44:33;;;;;;;9.73;3.80;;;13.10;44.80;;;;;;10464119;28;20241;-67
2022/12/22 19:49:38;;;;;;;8.87;4.07;;;13.10;44.70;;;;;;10459365;28;20259;-71
2022/12/22 19:54:41;;;;;;;7.63;2.83;;;13.10;44.50;;;;;;10456207;28;20720;-72
2022/12/22 19:59:47;;;;;;;6.97;2.80;;;13.10;44.60;;;;;;10457429;28;20232;-69
2022/12/22 20:04:52;;;;;;;5.70;2.80;;;13.10;44.40;;;;;;10462578;28;20228;-69
2022/12/22 20:09:55;;;;;;;5.63;3.90;;;13.00;44.30;;;;;;10459313;28;20233;-69
2022/12/22 20:14:59;;;;;;;7.97;6.27;;;13.00;44.40;;;;;;10458208;28;20229;-70
2022/12/22 20:20:05;;;;;;;10.50;9.40;;;13.00;44.20;;;;;;10462749;28;20232;-68
2022/12/22 20:25:14;;;;;;;23.63;20.17;;;12.90;43.90;;;;;;10465540;28;20225;-69
2022/12/22 20:30:20;;;;;;;7.07;5.63;;;12.80;43.60;;;;;;10464045;28;20260;-69
2022/12/22 20:35:25;;;;;;;5.67;4.23;;;12.80;43.80;;;;;;10471974;28;20235;-67
2022/12/22 20:40:31;;;;;;;8.30;3.60;;;12.70;43.80;;;;;;10467779;28;20224;-73
2022/12/22 20:45:34;;;;;;;4.30;2.77;;;12.70;43.60;;;;;;10473254;28;20236;-68
2022/12/22 20:50:39;;;;;;;7.60;3.60;;;12.60;43.80;;;;;;10473977;28;20597;-68
2022/12/22 20:55:42;;;;;;;13.33;9.13;;;12.50;43.60;;;;;;10478164;28;20661;-67
2022/12/22 21:00:45;;;;;;;13.20;9.10;;;12.50;43.70;;;;;;10476803;28;20582;-72
2022/12/22 21:05:50;;;;;;;13.60;8.60;;;12.50;43.80;;;;;;10486970;28;20756;-68
2022/12/22 21:10:55;;;;;;;7.87;5.47;;;12.40;43.70;;;;;;10484997;28;20224;-74
2022/12/22 21:15:58;;;;;;;7.23;4.80;;;12.30;43.80;;;;;;10470923;28;20228;-68
2022/12/22 21:21:03;;;;;;;8.10;4.40;;;12.20;44.00;;;;;;10467527;28;20221;-69
2022/12/22 21:26:15;;;;;;;5.93;3.90;;;12.10;44.10;;;;;;10455103;28;20252;-69
2022/12/22 21:31:18;;;;;;;8.77;5.63;;;12.00;44.40;;;;;;10486071;28;20224;-73
2022/12/22 21:36:27;;;;;;;9.33;4.20;;;12.00;44.70;;;;;;10477959;28;20262;-69
2022/12/22 21:46:52;;;;;;;6.60;2.53;;;11.90;45.40;;;;;;10466543;28;20808;-69
2022/12/22 21:51:56;;;;;;;6.27;2.70;;;11.90;45.50;;;;;;10490052;28;20929;-73
2022/12/22 21:57:00;;;;;;;5.13;2.40;;;12.00;45.60;;;;;;10486874;28;20228;-67
2022/12/22 22:02:03;;;;;;;6.93;2.63;;;12.00;45.70;;;;;;10478898;28;20220;-68
2022/12/22 22:07:07;;;;;;;3.90;2.40;;;12.00;45.90;;;;;;10471015;28;20231;-68
2022/12/22 22:17:31;;;;;;;4.23;2.20;;;12.00;46.00;;;;;;10457655;28;20263;-67
2022/12/22 22:22:36;;;;;;;4.93;1.97;;;12.00;46.10;;;;;;10459586;28;20631;-67
2022/12/22 22:27:40;;;;;;;3.77;1.60;;;12.10;46.50;;;;;;10460702;28;20707;-67
2022/12/22 22:32:49;;;;;;;4.70;1.60;;;12.10;46.60;;;;;;10467280;28;20222;-67
2022/12/22 22:37:54;;;;;;;3.00;1.57;;;12.30;46.80;;;;;;10464418;28;20256;-67
2022/12/22 22:42:58;;;;;;;4.10;1.50;;;12.30;47.00;;;;;;10460934;28;20654;-67
2022/12/22 22:48:01;;;;;;;4.90;1.60;;;12.40;47.10;;;;;;10458417;28;20225;-67
2022/12/22 22:53:13;;;;;;;4.87;1.70;;;12.40;47.00;;;;;;10465740;28;20225;-67
2022/12/22 22:58:17;;;;;;;3.80;2.10;;;12.50;47.10;;;;;;10461921;28;20709;-67
2022/12/22 23:03:20;;;;;;;3.63;1.60;;;12.50;47.00;;;;;;10458462;28;20591;-67
2022/12/22 23:08:24;;;;;;;6.30;2.47;;;12.50;46.90;;;;;;10457453;28;20224;-67
2022/12/22 23:13:28;;;;;;;8.97;3.43;;;12.50;46.90;;;;;;10465200;28;20224;-67
2022/12/22 23:18:32;;;;;;;5.17;2.87;;;12.50;46.80;;;;;;10463671;28;20236;-67
2022/12/22 23:23:37;;;;;;;5.37;2.17;;;12.50;46.70;;;;;;10459607;28;20220;-67
2022/12/22 23:28:40;;;;;;;4.13;2.10;;;12.60;46.80;;;;;;10457625;28;20244;-67
2022/12/22 23:33:43;;;;;;;4.27;1.63;;;12.60;46.60;;;;;;10459419;28;20216;-67
2022/12/22 23:38:49;;;;;;;3.73;1.70;;;12.50;46.50;;;;;;10462535;28;20228;-67
2022/12/22 23:43:53;;;;;;;4.37;1.90;;;12.50;46.60;;;;;;10460131;28;20231;-67
2022/12/22 23:48:58;;;;;;;3.43;1.80;;;12.50;46.40;;;;;;10463167;28;20228;-67
2022/12/22 23:54:02;;;;;;;5.37;1.97;;;12.50;46.40;;;;;;10461992;28;20224;-67
2022/12/22 23:59:05;;;;;;;6.40;2.00;;;12.50;46.40;;;;;;10459005;28;20606;-67
